Time;durP1;ratioP1;P1;durP2;ratioP2;P2;SDS_P1;SDS_P2;PMS_P1;PMS_P2;Temp;Humidity;BMP_temperature;BMP_pressure;BME280_temperature;BME280_humidity;BME280_pressure;Samples;Min_cycle;Max_cycle;Signal;HPM_P1;HPM_P2
2021/10/26 00:00:09;;;;;;;20.50;13.02;;;9.10;99.90;;;;;;5096149;28;20027;-52
2021/10/26 00:02:36;;;;;;;19.70;13.38;;;8.90;99.90;;;;;;5074840;28;20590;-52
2021/10/26 00:05:04;;;;;;;20.80;14.02;;;8.70;99.90;;;;;;5096156;28;20036;-53
2021/10/26 00:07:30;;;;;;;20.55;13.65;;;8.50;99.90;;;;;;5095987;28;20483;-53
2021/10/26 00:09:55;;;;;;;20.67;14.68;;;8.20;99.90;;;;;;5092438;28;20020;-52
2021/10/26 00:12:21;;;;;;;20.73;14.13;;;8.30;99.90;;;;;;5095956;28;20115;-53
2021/10/26 00:14:48;;;;;;;20.00;13.85;;;8.40;99.90;;;;;;5095826;28;20016;-53
2021/10/26 00:17:14;;;;;;;20.25;14.68;;;8.70;99.90;;;;;;5095935;28;20403;-53
2021/10/26 00:19:40;;;;;;;20.83;14.18;;;8.80;99.90;;;;;;5094971;28;20032;-53
2021/10/26 00:22:06;;;;;;;22.58;14.13;;;8.80;99.90;;;;;;5090446;28;20020;-52
2021/10/26 00:24:32;;;;;;;23.67;15.50;;;8.80;99.90;;;;;;5092760;28;20024;-53
2021/10/26 00:26:58;;;;;;;22.23;15.40;;;8.80;99.90;;;;;;5095808;28;20042;-53
2021/10/26 00:29:24;;;;;;;27.48;16.27;;;8.90;99.90;;;;;;5093006;28;20378;-52
2021/10/26 00:31:50;;;;;;;22.92;16.05;;;8.80;99.90;;;;;;5077234;28;20036;-53
2021/10/26 00:34:16;;;;;;;19.92;13.77;;;8.80;99.90;;;;;;5096259;28;20017;-52
2021/10/26 00:36:41;;;;;;;18.48;13.60;;;8.50;99.90;;;;;;5095744;28;20115;-53
2021/10/26 00:39:08;;;;;;;16.05;12.23;;;8.10;99.90;;;;;;5095992;28;20045;-52
2021/10/26 00:41:34;;;;;;;20.88;12.30;;;7.70;99.90;;;;;;5095964;28;20024;-53
2021/10/26 00:44:00;;;;;;;16.88;11.98;;;7.50;99.90;;;;;;5096092;28;20039;-52
2021/10/26 00:46:34;;;;;;;18.10;13.10;;;7.50;99.90;;;;;;5095813;28;20418;-52
2021/10/26 00:49:01;;;;;;;18.77;12.45;;;7.60;99.90;;;;;;5074519;28;20111;-52
2021/10/26 00:51:29;;;;;;;16.42;12.77;;;7.60;99.90;;;;;;5077241;28;20042;-52
2021/10/26 00:53:56;;;;;;;17.67;12.63;;;7.50;99.90;;;;;;5095780;28;20085;-53
2021/10/26 00:56:23;;;;;;;19.05;12.15;;;7.60;99.90;;;;;;5095660;28;20526;-52
2021/10/26 00:58:50;;;;;;;18.50;13.00;;;7.70;99.90;;;;;;5095776;28;20025;-52
2021/10/26 01:01:16;;;;;;;17.65;13.27;;;7.70;99.90;;;;;;5095748;28;20052;-52
2021/10/26 01:03:42;;;;;;;18.20;13.07;;;7.80;99.90;;;;;;5095718;28;20024;-52
2021/10/26 01:06:08;;;;;;;18.73;12.43;;;7.90;99.90;;;;;;5076851;28;20499;-52
2021/10/26 01:08:35;;;;;;;16.58;11.50;;;7.60;99.90;;;;;;5095624;28;20391;-52
2021/10/26 01:11:01;;;;;;;16.02;12.43;;;7.40;99.90;;;;;;5095351;28;20115;-52
2021/10/26 01:13:27;;;;;;;19.35;13.05;;;7.30;99.90;;;;;;5076921;28;20040;-52
2021/10/26 01:15:56;;;;;;;17.85;12.90;;;6.80;99.90;;;;;;5095147;28;20502;-52
2021/10/26 01:18:26;;;;;;;18.95;12.07;;;6.70;99.90;;;;;;5095319;28;20032;-52
2021/10/26 01:20:53;;;;;;;17.45;12.50;;;6.80;99.90;;;;;;5095066;28;20028;-52
2021/10/26 01:23:19;;;;;;;16.75;12.45;;;6.90;99.90;;;;;;5095321;28;20099;-52
2021/10/26 01:25:46;;;;;;;18.58;12.70;;;7.00;99.90;;;;;;5095093;28;20032;-53
2021/10/26 01:28:13;;;;;;;17.52;11.65;;;7.10;99.90;;;;;;5095054;28;20027;-52
2021/10/26 01:30:40;;;;;;;15.80;11.52;;;7.30;99.90;;;;;;5095065;28;20028;-52
2021/10/26 01:33:06;;;;;;;18.00;11.45;;;7.30;99.90;;;;;;5095021;28;20020;-52
2021/10/26 01:35:34;;;;;;;16.20;11.65;;;7.20;99.90;;;;;;5095054;28;20076;-52
2021/10/26 01:38:01;;;;;;;18.00;11.77;;;7.20;99.90;;;;;;5094887;28;20020;-52
2021/10/26 01:40:27;;;;;;;15.35;11.93;;;7.10;99.90;;;;;;5095580;28;20505;-57
2021/10/26 01:42:53;;;;;;;18.25;12.00;;;7.10;99.90;;;;;;5078530;28;20036;-53
2021/10/26 01:45:19;;;;;;;17.38;12.13;;;7.00;99.90;;;;;;5095976;28;20035;-52
2021/10/26 01:47:46;;;;;;;16.35;10.75;;;6.90;99.90;;;;;;5094926;28;20028;-52
2021/10/26 01:50:18;;;;;;;17.98;12.38;;;6.70;99.90;;;;;;5075084;28;20043;-52
2021/10/26 01:52:45;;;;;;;14.55;10.90;;;6.70;99.90;;;;;;5094601;28;20035;-52
2021/10/26 01:55:12;;;;;;;15.23;10.68;;;6.60;99.90;;;;;;5093192;28;20454;-53
2021/10/26 01:57:38;;;;;;;14.10;10.93;;;6.60;99.90;;;;;;5094342;28;20028;-52
2021/10/26 02:00:09;;;;;;;14.98;10.55;;;6.70;99.90;;;;;;5092708;28;20478;-53
2021/10/26 02:02:35;;;;;;;16.45;11.27;;;6.30;99.90;;;;;;5094480;28;20024;-52
2021/10/26 02:05:02;;;;;;;14.55;10.60;;;6.10;99.90;;;;;;5094378;28;20035;-52
2021/10/26 02:07:28;;;;;;;15.38;10.10;;;5.80;99.90;;;;;;5094508;28;20027;-52
2021/10/26 02:09:54;;;;;;;15.63;9.82;;;5.70;99.90;;;;;;5094125;28;20032;-52
2021/10/26 02:12:21;;;;;;;19.30;10.32;;;5.60;99.90;;;;;;5094314;28;20021;-52
2021/10/26 02:14:46;;;;;;;15.80;11.25;;;5.40;99.90;;;;;;5094101;28;20031;-52
2021/10/26 02:17:12;;;;;;;13.02;10.38;;;5.30;99.90;;;;;;5094196;28;20028;-52
2021/10/26 02:19:39;;;;;;;16.67;11.80;;;5.40;99.90;;;;;;5075730;28;20060;-52
2021/10/26 02:22:05;;;;;;;14.50;11.27;;;5.50;99.90;;;;;;5094103;28;20032;-53
2021/10/26 02:24:31;;;;;;;17.83;11.82;;;5.70;99.90;;;;;;5094006;28;20028;-52
2021/10/26 02:26:57;;;;;;;18.92;12.85;;;5.70;99.90;;;;;;5094069;28;20528;-52
2021/10/26 02:29:23;;;;;;;19.40;12.65;;;5.70;99.90;;;;;;5075452;28;20032;-52
2021/10/26 02:31:49;;;;;;;20.92;13.13;;;5.90;99.90;;;;;;5093989;28;20039;-52
2021/10/26 02:34:16;;;;;;;19.83;12.93;;;6.10;99.90;;;;;;5075315;28;20036;-52
2021/10/26 02:36:41;;;;;;;26.10;13.98;;;6.40;99.90;;;;;;5093916;28;20024;-52
2021/10/26 02:39:08;;;;;;;35.45;14.00;;;6.70;99.90;;;;;;5093893;28;20028;-52
2021/10/26 02:41:34;;;;;;;15.38;11.90;;;6.90;99.90;;;;;;5075079;28;20514;-52
2021/10/26 02:44:00;;;;;;;28.35;13.10;;;7.00;99.90;;;;;;5093868;28;20029;-52
2021/10/26 02:46:26;;;;;;;17.48;12.35;;;7.10;99.90;;;;;;5093742;28;20036;-52
2021/10/26 02:48:52;;;;;;;17.50;11.95;;;7.20;99.90;;;;;;5093585;28;20039;-52
2021/10/26 02:51:18;;;;;;;21.48;12.25;;;7.20;99.90;;;;;;5093578;28;20028;-53
2021/10/26 02:53:44;;;;;;;19.55;11.80;;;7.30;99.90;;;;;;5075201;28;20106;-52
2021/10/26 02:56:10;;;;;;;17.90;12.98;;;7.40;99.90;;;;;;5093642;28;20035;-53
2021/10/26 02:58:36;;;;;;;18.50;12.75;;;7.50;99.90;;;;;;5091889;28;20040;-52
2021/10/26 03:01:02;;;;;;;17.88;13.30;;;7.50;99.90;;;;;;5093413;28;20047;-52
2021/10/26 03:03:28;;;;;;;24.17;13.65;;;7.50;99.90;;;;;;5093500;28;20028;-52
2021/10/26 03:05:54;;;;;;;20.02;13.25;;;7.50;99.90;;;;;;5093530;28;20043;-53
2021/10/26 03:08:20;;;;;;;18.63;13.15;;;7.50;99.90;;;;;;5074876;28;20380;-52
2021/10/26 03:10:46;;;;;;;22.65;15.30;;;7.60;99.90;;;;;;5093298;28;20062;-52
2021/10/26 03:13:12;;;;;;;19.27;14.57;;;7.60;99.90;;;;;;5093432;28;20044;-53
2021/10/26 03:15:37;;;;;;;23.25;15.70;;;7.70;99.90;;;;;;5074640;28;20052;-52
2021/10/26 03:18:03;;;;;;;25.13;15.50;;;7.70;99.90;;;;;;5074881;28;20119;-53
2021/10/26 03:20:29;;;;;;;22.25;14.48;;;7.70;99.90;;;;;;5093415;28;20539;-53
2021/10/26 03:22:55;;;;;;;22.13;15.25;;;7.70;99.90;;;;;;5093262;28;20027;-53
2021/10/26 03:25:22;;;;;;;25.05;14.32;;;7.60;99.90;;;;;;5093162;28;20036;-53
2021/10/26 03:27:49;;;;;;;23.75;15.13;;;7.70;99.90;;;;;;5093594;28;20031;-52
2021/10/26 03:30:15;;;;;;;19.00;13.82;;;7.70;99.90;;;;;;5093257;28;20024;-53
2021/10/26 03:32:42;;;;;;;21.75;13.55;;;7.70;99.90;;;;;;5093399;28;20024;-53
2021/10/26 03:35:08;;;;;;;23.35;14.00;;;7.90;99.90;;;;;;5093227;28;20051;-53
2021/10/26 03:37:36;;;;;;;24.42;13.88;;;7.90;99.90;;;;;;5091697;28;20119;-53
2021/10/26 03:40:03;;;;;;;26.33;14.75;;;7.90;99.90;;;;;;5072309;28;20396;-52
2021/10/26 03:42:29;;;;;;;18.88;13.60;;;8.00;99.90;;;;;;5034151;28;20068;-53
2021/10/26 03:44:55;;;;;;;22.70;12.90;;;8.00;99.90;;;;;;5034445;28;20111;-52
2021/10/26 03:47:21;;;;;;;22.98;13.68;;;7.90;99.90;;;;;;5050804;28;20029;-52
2021/10/26 03:49:47;;;;;;;27.55;13.15;;;7.90;99.90;;;;;;5050957;28;20472;-53
2021/10/26 03:52:12;;;;;;;23.58;13.88;;;7.80;99.90;;;;;;4994164;28;20512;-53
2021/10/26 03:54:42;;;;;;;20.30;13.60;;;7.80;99.90;;;;;;4997729;28;20057;-53
2021/10/26 03:57:10;;;;;;;25.00;19.50;;;7.70;99.90;;;;;;5030848;28;20068;-53
2021/10/26 03:59:36;;;;;;;19.25;13.70;;;7.70;99.90;;;;;;5030784;28;20048;-52
2021/10/26 04:02:11;;;;;;;18.40;12.50;;;7.50;99.90;;;;;;5030367;28;20132;-53
2021/10/26 04:04:37;;;;;;;22.83;13.15;;;7.50;99.90;;;;;;5030580;28;20473;-53
2021/10/26 04:07:06;;;;;;;24.30;13.82;;;7.50;99.90;;;;;;5014338;28;20116;-53
2021/10/26 04:14:47;;;;;;;21.63;14.27;;;7.50;99.90;;;;;;5071390;28;20060;-53
2021/10/26 04:17:12;;;;;;;18.08;12.85;;;7.50;99.90;;;;;;5073321;28;20132;-53
2021/10/26 04:19:38;;;;;;;16.80;12.25;;;7.40;99.90;;;;;;5073300;28;20566;-51
2021/10/26 04:22:04;;;;;;;21.52;12.60;;;7.30;99.90;;;;;;5074263;28;20035;-51
2021/10/26 04:24:30;;;;;;;22.35;13.15;;;7.20;99.90;;;;;;5077228;28;20036;-51
2021/10/26 04:26:56;;;;;;;22.35;14.18;;;7.20;99.90;;;;;;5094429;28;20046;-51
2021/10/26 04:29:22;;;;;;;18.15;13.40;;;7.30;99.90;;;;;;5093710;28;20016;-51
2021/10/26 04:31:47;;;;;;;18.30;13.20;;;7.30;99.90;;;;;;5098609;28;20024;-50
2021/10/26 04:34:13;;;;;;;21.50;13.02;;;7.30;99.90;;;;;;5078817;28;20521;-56
2021/10/26 04:36:39;;;;;;;22.52;13.95;;;7.30;99.90;;;;;;5077422;28;20032;-56
2021/10/26 04:39:05;;;;;;;16.83;13.05;;;7.30;99.90;;;;;;5096200;28;20069;-54
2021/10/26 04:41:34;;;;;;;19.55;13.98;;;7.40;99.90;;;;;;5095957;28;20028;-54
2021/10/26 04:44:02;;;;;;;21.33;13.50;;;7.40;99.90;;;;;;5096122;28;20133;-53
2021/10/26 04:46:30;;;;;;;20.13;13.70;;;7.40;99.90;;;;;;5095793;28;20472;-54
2021/10/26 04:48:55;;;;;;;19.73;13.48;;;7.30;99.90;;;;;;5096026;28;20028;-54
2021/10/26 04:51:21;;;;;;;19.08;13.40;;;7.30;99.90;;;;;;5095866;28;20027;-55
2021/10/26 04:53:47;;;;;;;19.17;13.15;;;7.40;99.90;;;;;;5077119;28;20042;-55
2021/10/26 04:56:13;;;;;;;24.00;15.77;;;7.30;99.90;;;;;;5060030;28;20055;-54
2021/10/26 04:58:39;;;;;;;29.30;15.48;;;7.20;99.90;;;;;;5077064;28;20111;-54
2021/10/26 05:01:05;;;;;;;25.27;15.38;;;7.20;99.90;;;;;;5095892;28;20073;-56
2021/10/26 05:03:31;;;;;;;20.95;15.50;;;7.10;99.90;;;;;;5076989;28;20429;-54
2021/10/26 05:05:58;;;;;;;20.52;14.75;;;7.10;99.90;;;;;;5095437;28;20365;-53
2021/10/26 05:08:24;;;;;;;21.38;14.25;;;7.10;99.90;;;;;;5095699;28;20024;-54
2021/10/26 05:10:50;;;;;;;25.02;14.38;;;7.10;99.90;;;;;;5076970;28;20036;-54
2021/10/26 05:13:16;;;;;;;24.15;14.68;;;7.10;99.90;;;;;;5095303;28;20532;-56
2021/10/26 05:15:42;;;;;;;24.35;15.38;;;7.10;99.90;;;;;;5095203;28;20058;-54
2021/10/26 05:18:13;;;;;;;31.48;15.55;;;7.10;99.90;;;;;;5095285;28;20052;-53
2021/10/26 05:20:39;;;;;;;37.05;20.17;;;7.10;99.90;;;;;;5095291;28;20036;-55
2021/10/26 05:23:06;;;;;;;43.70;22.83;;;7.10;99.90;;;;;;5095277;28;20484;-55
2021/10/26 05:25:33;;;;;;;113.43;56.47;;;7.00;99.90;;;;;;5095039;28;20044;-55
2021/10/26 05:27:59;;;;;;;68.95;38.67;;;7.00;99.90;;;;;;5088594;28;20706;-53
2021/10/26 05:30:24;;;;;;;39.60;23.85;;;7.10;99.90;;;;;;5092526;28;20024;-56
2021/10/26 05:32:51;;;;;;;54.90;31.50;;;7.00;99.90;;;;;;5094493;28;20024;-55
2021/10/26 05:35:16;;;;;;;71.40;44.25;;;7.10;99.90;;;;;;5092510;28;20055;-54
2021/10/26 05:37:42;;;;;;;58.67;40.45;;;7.10;99.90;;;;;;5094234;28;20464;-56
2021/10/26 05:40:08;;;;;;;57.50;38.08;;;7.10;99.90;;;;;;5092794;28;20028;-53
2021/10/26 05:42:35;;;;;;;29.00;19.40;;;7.20;99.90;;;;;;5092284;28;20134;-56
2021/10/26 05:45:02;;;;;;;24.60;17.63;;;7.40;99.90;;;;;;5085930;28;20097;-56
2021/10/26 05:47:28;;;;;;;26.63;16.77;;;8.70;99.90;;;;;;5092158;28;20024;-53
2021/10/26 05:49:54;;;;;;;23.00;15.07;;;10.40;99.90;;;;;;5023811;28;20468;-56
2021/10/26 05:52:20;;;;;;;29.83;19.45;;;12.00;99.90;;;;;;5075533;28;20040;-55
2021/10/26 05:54:46;;;;;;;43.33;31.25;;;13.60;99.80;;;;;;5092070;28;20032;-56
2021/10/26 05:57:11;;;;;;;21.00;16.20;;;14.90;97.20;;;;;;5075811;28;20059;-55
2021/10/26 05:59:37;;;;;;;28.77;19.02;;;15.60;95.10;;;;;;5094892;28;20059;-53
2021/10/26 06:02:03;;;;;;;23.02;16.20;;;16.20;94.10;;;;;;5094460;28;20457;-55
2021/10/26 06:04:29;;;;;;;23.42;15.57;;;16.90;92.50;;;;;;5094406;28;20024;-57
2021/10/26 06:06:56;;;;;;;19.50;15.23;;;17.30;91.10;;;;;;5094241;28;20043;-56
2021/10/26 06:09:22;;;;;;;31.63;20.17;;;18.50;90.20;;;;;;5094288;28;20028;-58
2021/10/26 06:11:51;;;;;;;19.92;13.98;;;18.90;87.00;;;;;;5094241;28;20157;-54
2021/10/26 06:14:17;;;;;;;19.30;14.98;;;19.40;85.40;;;;;;5094279;28;20073;-54
2021/10/26 06:16:43;;;;;;;17.25;13.80;;;20.00;82.20;;;;;;5091271;28;20048;-58
2021/10/26 06:19:10;;;;;;;18.00;13.50;;;21.00;78.70;;;;;;5094239;28;20027;-57
2021/10/26 06:21:36;;;;;;;20.15;15.55;;;21.40;76.50;;;;;;5092719;28;20043;-56
2021/10/26 06:24:02;;;;;;;19.23;15.70;;;21.90;77.10;;;;;;5082026;28;20040;-55
2021/10/26 06:26:29;;;;;;;23.42;17.13;;;22.50;73.30;;;;;;5081691;28;20035;-55
2021/10/26 06:28:57;;;;;;;18.50;16.52;;;22.80;73.60;;;;;;5083114;28;20028;-53
2021/10/26 06:31:23;;;;;;;20.33;17.77;;;23.00;71.90;;;;;;5081358;28;20020;-55
2021/10/26 06:33:49;;;;;;;25.17;17.42;;;;;;;;;;5071437;28;20102;-54
2021/10/26 06:36:15;;;;;;;23.20;18.85;;;23.80;68.80;;;;;;5088553;28;20032;-55
2021/10/26 06:38:40;;;;;;;20.67;18.10;;;24.20;69.50;;;;;;5090900;28;20028;-54
2021/10/26 06:41:07;;;;;;;24.88;17.10;;;;;;;;;;5090713;28;20487;-55
2021/10/26 06:43:34;;;;;;;27.25;18.30;;;;;;;;;;5089944;28;20467;-54
2021/10/26 06:46:00;;;;;;;26.42;19.13;;;24.90;67.50;;;;;;5078327;28;20043;-58
2021/10/26 06:48:26;;;;;;;24.23;19.25;;;25.10;66.70;;;;;;5089396;28;20032;-57
2021/10/26 06:50:53;;;;;;;27.48;20.00;;;;;;;;;;5090107;28;20072;-54
2021/10/26 06:53:19;;;;;;;27.25;21.55;;;25.60;67.40;;;;;;5087613;28;20123;-55
2021/10/26 06:55:46;;;;;;;26.63;23.02;;;25.50;66.20;;;;;;5092276;28;20036;-56
2021/10/26 06:58:12;;;;;;;22.52;20.13;;;25.70;66.30;;;;;;5086248;28;20081;-52
2021/10/26 07:00:38;;;;;;;22.02;19.13;;;26.30;65.40;;;;;;5091598;28;20455;-55
2021/10/26 07:03:04;;;;;;;18.33;15.85;;;26.20;65.70;;;;;;5046080;28;20044;-55
2021/10/26 07:05:31;;;;;;;24.55;18.88;;;26.10;65.90;;;;;;5083788;28;20076;-55
2021/10/26 07:07:57;;;;;;;21.48;18.23;;;26.60;64.70;;;;;;5081221;28;20033;-53
2021/10/26 07:10:23;;;;;;;21.33;16.58;;;26.60;64.50;;;;;;5087429;28;20463;-57
2021/10/26 07:12:49;;;;;;;21.95;18.55;;;26.70;64.60;;;;;;5089307;28;20027;-56
2021/10/26 07:15:16;;;;;;;18.98;16.92;;;26.60;64.00;;;;;;5066921;28;20105;-57
2021/10/26 07:17:43;;;;;;;21.00;18.77;;;26.90;63.50;;;;;;5085210;28;20021;-56
2021/10/26 07:20:12;;;;;;;19.88;17.15;;;27.20;63.00;;;;;;5077285;28;20051;-55
2021/10/26 07:22:38;;;;;;;23.95;18.45;;;27.30;62.50;;;;;;5083346;28;20039;-54
2021/10/26 07:25:08;;;;;;;21.80;18.77;;;27.40;62.60;;;;;;5063496;28;20132;-53
2021/10/26 07:27:35;;;;;;;37.38;26.63;;;27.50;62.20;;;;;;5060522;28;20041;-57
2021/10/26 07:30:02;;;;;;;30.98;21.95;;;28.10;70.70;;;;;;5089226;28;20023;-56
2021/10/26 07:32:28;;;;;;;18.65;16.55;;;;;;;;;;5006544;28;20033;-57
2021/10/26 07:34:54;;;;;;;16.10;14.40;;;28.80;59.80;;;;;;5037889;28;20030;-54
2021/10/26 07:37:23;;;;;;;16.88;14.32;;;28.50;60.40;;;;;;5038878;28;20033;-57
2021/10/26 07:39:52;;;;;;;19.42;14.45;;;28.80;60.00;;;;;;5037084;28;20064;-57
2021/10/26 07:42:19;;;;;;;16.75;14.55;;;28.30;60.20;;;;;;5043220;28;20045;-56
2021/10/26 07:44:48;;;;;;;16.08;14.38;;;28.10;60.50;;;;;;5049955;28;20056;-53
2021/10/26 07:47:16;;;;;;;19.23;15.43;;;27.90;59.90;;;;;;5004607;28;20565;-53
2021/10/26 07:49:44;;;;;;;16.40;13.73;;;27.90;59.60;;;;;;5003595;28;21079;-54
2021/10/26 07:52:11;;;;;;;18.52;13.48;;;27.30;59.80;;;;;;5005594;28;20042;-54
2021/10/26 07:54:38;;;;;;;16.30;13.73;;;27.60;60.10;;;;;;4993536;28;20049;-54
2021/10/26 07:57:04;;;;;;;16.35;14.75;;;28.40;59.80;;;;;;4993695;28;20158;-54
2021/10/26 07:59:30;;;;;;;24.13;22.02;;;27.20;59.40;;;;;;4977143;28;20464;-53
2021/10/26 08:01:56;;;;;;;16.38;13.13;;;25.50;58.50;;;;;;4990686;28;20096;-55
2021/10/26 08:04:22;;;;;;;16.88;13.15;;;26.50;60.20;;;;;;5026102;28;20132;-54
2021/10/26 08:06:48;;;;;;;13.38;10.77;;;26.50;60.30;;;;;;5026484;28;20045;-54
2021/10/26 08:09:15;;;;;;;16.85;15.32;;;26.70;59.70;;;;;;4969610;28;20499;-54
2021/10/26 08:11:42;;;;;;;12.93;11.65;;;;;;;;;;5047581;28;20129;-54
2021/10/26 08:14:08;;;;;;;12.65;10.90;;;25.40;59.80;;;;;;5066503;28;20044;-54
2021/10/26 08:16:33;;;;;;;17.67;16.15;;;26.00;62.40;;;;;;5070272;28;20063;-54
2021/10/26 08:19:00;;;;;;;13.25;11.23;;;24.00;60.00;;;;;;5032729;28;20097;-54
2021/10/26 08:21:27;;;;;;;13.75;10.93;;;25.30;62.00;;;;;;5070905;28;20090;-56
2021/10/26 08:23:54;;;;;;;14.07;12.77;;;25.30;61.20;;;;;;5022656;28;20044;-52
2021/10/26 08:26:26;;;;;;;12.70;11.40;;;23.60;61.30;;;;;;5081746;28;20044;-53
2021/10/26 08:28:59;;;;;;;13.60;11.18;;;25.00;62.30;;;;;;5079927;28;20070;-53
2021/10/26 08:31:32;;;;;;;11.65;10.40;;;23.60;61.50;;;;;;5077554;28;20041;-53
2021/10/26 08:36:33;;;;;;;19.98;13.68;;;22.00;64.80;;;;;;5080326;28;20028;-52
2021/10/26 08:38:59;;;;;;;13.80;10.40;;;24.10;69.40;;;;;;5081279;28;20032;-53
2021/10/26 08:41:26;;;;;;;15.75;14.18;;;25.00;62.20;;;;;;5061133;28;20041;-53
2021/10/26 08:43:52;;;;;;;17.00;13.50;;;24.20;60.20;;;;;;5045644;28;20040;-53
2021/10/26 08:46:20;;;;;;;19.35;13.50;;;25.10;61.70;;;;;;5071689;28;20047;-53
2021/10/26 08:48:52;;;;;;;13.73;11.27;;;25.20;60.50;;;;;;5086362;28;20020;-53
2021/10/26 08:51:23;;;;;;;13.65;12.35;;;;;;;;;;5080096;28;20078;-53
2021/10/26 08:53:53;;;;;;;13.63;9.80;;;23.30;60.50;;;;;;5085268;28;20031;-52
2021/10/26 08:56:21;;;;;;;13.52;10.00;;;24.70;61.40;;;;;;5085087;28;20032;-52
2021/10/26 08:58:47;;;;;;;12.30;11.10;;;26.20;60.50;;;;;;5086547;28;20459;-52
2021/10/26 09:01:13;;;;;;;12.95;10.60;;;23.40;60.90;;;;;;5073968;28;20039;-52
2021/10/26 09:03:39;;;;;;;13.50;11.73;;;24.50;62.00;;;;;;5087297;28;20460;-52
2021/10/26 09:06:09;;;;;;;12.65;10.63;;;26.00;61.10;;;;;;5090482;28;20036;-52
2021/10/26 09:08:36;;;;;;;11.18;9.75;;;26.70;71.00;;;;;;5088375;28;20048;-52
2021/10/26 09:11:23;;;;;;;14.02;12.57;;;26.60;69.30;;;;;;5081191;28;20036;-52
2021/10/26 09:16:42;;;;;;;13.27;10.50;;;;;;;;;;5086546;28;20047;-53
2021/10/26 09:19:17;;;;;;;13.93;12.52;;;27.00;93.20;;;;;;5081444;28;20089;-53
2021/10/26 09:22:04;;;;;;;15.15;12.75;;;25.70;58.50;;;;;;5079871;28;20041;-53
2021/10/26 09:24:30;;;;;;;12.25;10.98;;;26.90;58.80;;;;;;5081057;28;20043;-55
2021/10/26 09:27:02;;;;;;;12.73;10.80;;;25.80;58.60;;;;;;5080396;28;20028;-55
2021/10/26 09:29:28;;;;;;;12.85;11.57;;;25.30;61.00;;;;;;5087468;28;20032;-55
2021/10/26 09:32:13;;;;;;;14.80;12.43;;;25.20;59.70;;;;;;5080489;28;20039;-56
2021/10/26 09:34:43;;;;;;;15.60;13.15;;;;;;;;;;5081263;28;20479;-56
2021/10/26 09:37:09;;;;;;;12.40;11.05;;;;;;;;;;5081875;28;20040;-55
2021/10/26 09:39:36;;;;;;;13.38;11.98;;;;;;;;;;5085866;28;20028;-55
2021/10/26 09:42:05;;;;;;;14.02;12.63;;;25.40;94.40;;;;;;5087698;28;20509;-57
2021/10/26 09:44:36;;;;;;;18.73;16.48;;;26.10;60.20;;;;;;5082408;28;20016;-56
2021/10/26 09:47:08;;;;;;;16.67;15.27;;;24.80;66.80;;;;;;5089248;28;20547;-54
2021/10/26 09:49:39;;;;;;;13.07;11.73;;;24.10;63.60;;;;;;5082375;28;20127;-52
2021/10/26 09:52:21;;;;;;;16.58;11.15;;;23.80;61.80;;;;;;5070707;28;20075;-47
2021/10/26 09:54:50;;;;;;;15.05;13.65;;;;;;;;;;5085474;28;20483;-53
2021/10/26 09:57:17;;;;;;;19.67;17.30;;;26.10;67.80;;;;;;5084449;28;20071;-53
2021/10/26 09:59:47;;;;;;;14.75;13.27;;;;;;;;;;5086270;28;20466;-53
2021/10/26 10:02:25;;;;;;;29.08;27.00;;;26.80;81.30;;;;;;5041941;28;20043;-52
2021/10/26 10:04:56;;;;;;;12.88;11.70;;;;;;;;;;5087933;28;20028;-52
2021/10/26 10:07:35;;;;;;;11.93;10.82;;;24.20;60.20;;;;;;5084589;28;20032;-52
2021/10/26 10:10:09;;;;;;;16.20;12.95;;;25.40;59.90;;;;;;5081829;28;20047;-52
2021/10/26 10:12:39;;;;;;;15.48;12.93;;;;;;;;;;5092700;28;20032;-52
2021/10/26 10:15:07;;;;;;;35.58;33.13;;;27.20;72.50;;;;;;5086462;28;20059;-53
2021/10/26 10:17:35;;;;;;;22.20;20.55;;;;;;;;;;5031683;28;20123;-53
2021/10/26 10:20:05;;;;;;;12.40;11.20;;;24.00;59.60;;;;;;5083296;28;20047;-51
2021/10/26 10:22:32;;;;;;;14.18;12.73;;;24.30;60.90;;;;;;5077884;28;20118;-51
2021/10/26 10:25:00;;;;;;;15.48;14.27;;;;;;;;;;5082090;28;20021;-52
2021/10/26 10:27:27;;;;;;;12.93;11.60;;;;;;;;;;5082391;28;20403;-56
2021/10/26 10:29:53;;;;;;;14.43;11.65;;;26.40;58.20;;;;;;5082433;28;20019;-55
2021/10/26 10:32:24;;;;;;;16.50;13.45;;;26.40;60.70;;;;;;5062235;28;20039;-54
2021/10/26 10:34:51;;;;;;;11.40;10.40;;;26.50;60.00;;;;;;5086196;28;20016;-51
2021/10/26 10:37:19;;;;;;;11.30;10.15;;;26.80;59.10;;;;;;5085334;28;20032;-53
2021/10/26 10:39:45;;;;;;;12.75;11.35;;;26.40;59.90;;;;;;5088405;28;20542;-57
2021/10/26 10:42:24;;;;;;;13.80;11.40;;;26.40;59.80;;;;;;5085765;28;20116;-55
2021/10/26 10:44:53;;;;;;;12.57;11.27;;;26.50;59.50;;;;;;5087093;28;20414;-51
2021/10/26 10:47:41;;;;;;;12.35;11.02;;;27.00;59.40;;;;;;5082754;28;20059;-54
2021/10/26 10:50:23;;;;;;;13.05;11.75;;;;;;;;;;5081568;28;20032;-51
2021/10/26 10:53:20;;;;;;;15.45;14.07;;;26.10;59.40;;;;;;5072105;28;20036;-53
2021/10/26 10:56:22;;;;;;;16.23;14.48;;;;;;;;;;5009886;28;20045;-55
2021/10/26 10:58:49;;;;;;;14.25;11.43;;;24.50;61.60;;;;;;5004684;28;20494;-55
2021/10/26 11:01:27;;;;;;;13.07;11.70;;;25.30;62.10;;;;;;5014881;28;20549;-53
2021/10/26 11:03:54;;;;;;;14.05;12.65;;;26.10;61.00;;;;;;5014608;28;20116;-52
2021/10/26 11:06:42;;;;;;;15.35;13.57;;;26.40;60.30;;;;;;4979412;28;20548;-54
2021/10/26 11:09:29;;;;;;;14.80;13.40;;;26.70;59.40;;;;;;4998880;28;20402;-60
2021/10/26 11:12:06;;;;;;;20.63;18.80;;;26.60;60.40;;;;;;5015126;28;20410;-53
2021/10/26 11:14:54;;;;;;;14.80;13.32;;;;;;;;;;5012844;28;20030;-54
2021/10/26 11:17:32;;;;;;;13.75;12.32;;;26.90;60.50;;;;;;5009329;28;20046;-57
2021/10/26 11:20:29;;;;;;;13.50;12.10;;;27.10;60.40;;;;;;5010200;28;20092;-56
2021/10/26 11:23:02;;;;;;;15.27;13.60;;;25.70;59.40;;;;;;5020779;28;20030;-57
2021/10/26 11:25:30;;;;;;;14.77;12.02;;;26.00;60.40;;;;;;5014900;28;20053;-56
2021/10/26 11:27:57;;;;;;;17.15;13.57;;;26.20;60.30;;;;;;5021902;28;20550;-59
2021/10/26 11:30:28;;;;;;;15.77;12.20;;;25.30;61.00;;;;;;5011163;28;20060;-53
2021/10/26 11:33:09;;;;;;;18.00;12.88;;;24.90;61.80;;;;;;5047502;28;20032;-56
2021/10/26 11:35:53;;;;;;;20.03;12.93;;;25.40;62.00;;;;;;5080149;28;20033;-54
2021/10/26 11:38:26;;;;;;;14.73;10.75;;;;;;;;;;5090678;28;20280;-52
2021/10/26 11:41:01;;;;;;;13.77;11.18;;;25.20;61.10;;;;;;5083399;28;20036;-52
2021/10/26 11:44:00;;;;;;;11.93;9.63;;;25.10;60.70;;;;;;5087264;28;20070;-48
2021/10/26 11:46:28;;;;;;;11.48;9.55;;;25.50;61.50;;;;;;5081473;28;20033;-51
2021/10/26 11:48:58;;;;;;;11.30;9.85;;;25.60;61.30;;;;;;5093057;28;20032;-48
2021/10/26 11:51:26;;;;;;;13.95;10.93;;;25.70;60.10;;;;;;5089705;28;20411;-49
2021/10/26 11:54:04;;;;;;;13.57;9.13;;;25.90;60.40;;;;;;5083841;28;20027;-49
2021/10/26 11:56:36;;;;;;;12.68;9.57;;;25.80;60.40;;;;;;5093460;28;20544;-48
2021/10/26 11:59:08;;;;;;;11.57;10.38;;;25.30;60.10;;;;;;5085029;28;20051;-49
2021/10/26 12:01:40;;;;;;;16.50;9.77;;;24.10;61.90;;;;;;5086413;28;20055;-48
2021/10/26 12:04:36;;;;;;;11.15;9.63;;;23.90;62.50;;;;;;5086135;28;20020;-48
2021/10/26 12:07:08;;;;;;;20.42;10.90;;;24.30;66.60;;;;;;5043316;28;20472;-49
2021/10/26 12:09:41;;;;;;;14.40;10.90;;;24.20;67.30;;;;;;5081356;28;20025;-48
2021/10/26 12:12:10;;;;;;;12.40;9.93;;;24.40;63.80;;;;;;5084886;28;20384;-48
2021/10/26 12:14:40;;;;;;;13.07;9.48;;;;;;;;;;5026210;28;20080;-48
2021/10/26 12:17:24;;;;;;;13.88;10.05;;;23.70;62.10;;;;;;5086851;28;20068;-48
2021/10/26 12:19:54;;;;;;;19.27;12.90;;;;;;;;;;5085921;28;20139;-49
2021/10/26 12:22:24;;;;;;;12.35;9.55;;;23.20;83.00;;;;;;5081080;28;20381;-50
2021/10/26 12:24:58;;;;;;;16.63;10.07;;;23.00;64.10;;;;;;5054071;28;20077;-49
2021/10/26 12:27:35;;;;;;;12.63;9.00;;;23.60;63.00;;;;;;5079067;28;20040;-50
2021/10/26 12:30:08;;;;;;;12.02;9.52;;;23.00;63.20;;;;;;5078809;28;20428;-55
2021/10/26 12:32:34;;;;;;;12.13;9.35;;;23.40;64.40;;;;;;5055148;28;20114;-54
2021/10/26 12:35:00;;;;;;;12.18;9.30;;;23.20;63.30;;;;;;5079809;28;20447;-53
2021/10/26 12:37:32;;;;;;;12.52;9.45;;;23.30;63.60;;;;;;5073488;28;20036;-53
2021/10/26 12:40:00;;;;;;;12.32;9.18;;;23.50;64.80;;;;;;5082961;28;20043;-53
2021/10/26 12:42:35;;;;;;;15.05;9.50;;;22.90;64.20;;;;;;5087243;28;20039;-53
2021/10/26 12:45:03;;;;;;;13.98;10.85;;;23.10;64.90;;;;;;5079863;28;20078;-53
2021/10/26 12:47:33;;;;;;;11.27;9.38;;;22.20;65.30;;;;;;5071955;28;20035;-52
2021/10/26 12:50:00;;;;;;;11.02;8.77;;;21.80;65.50;;;;;;5086734;28;20025;-52
2021/10/26 12:52:25;;;;;;;13.10;9.18;;;22.40;65.30;;;;;;5088883;28;20035;-52
2021/10/26 12:54:52;;;;;;;12.60;9.63;;;21.80;65.20;;;;;;5086930;28;20047;-53
2021/10/26 12:57:37;;;;;;;13.32;9.13;;;;;;;;;;5081659;28;20538;-53